Time;durP1;ratioP1;P1;durP2;ratioP2;P2;SDS_P1;SDS_P2;PMS_P1;PMS_P2;Temp;Humidity;BMP_temperature;BMP_pressure;BME280_temperature;BME280_humidity;BME280_pressure;Samples;Min_cycle;Max_cycle;Signal;HPM_P1;HPM_P2
2021/09/10 00:07:34;;;;;;;46.85;24.68;;;;;;;14.02;90.47;100358.06;713683;1203;114472;-79
2021/09/10 00:22:36;;;;;;;47.13;25.60;;;;;;;13.96;90.26;100356.88;713841;1199;114923;-79
2021/09/10 00:37:39;;;;;;;47.03;23.50;;;;;;;13.89;91.69;100355.02;713827;1199;115116;-78
2021/09/10 00:52:41;;;;;;;40.50;22.03;;;;;;;13.72;91.55;100360.16;713940;1200;114889;-80
2021/09/10 01:07:45;;;;;;;39.60;22.48;;;;;;;13.53;92.28;100358.55;713697;1199;114297;-79
2021/09/10 01:22:47;;;;;;;48.03;24.55;;;;;;;13.39;92.18;100348.55;713777;1200;114342;-80
2021/09/10 01:37:50;;;;;;;39.90;22.48;;;;;;;13.22;93.10;100353.63;713814;1177;114812;-80
2021/09/10 01:52:53;;;;;;;42.65;23.08;;;;;;;13.05;93.31;100359.73;713906;1200;115069;-78
2021/09/10 02:07:55;;;;;;;41.33;22.05;;;;;;;12.84;93.76;100355.59;713800;1205;114239;-79
2021/09/10 02:22:58;;;;;;;32.03;18.35;;;;;;;12.82;94.72;100357.52;713984;1184;115068;-78
2021/09/10 02:38:00;;;;;;;27.15;16.65;;;;;;;12.53;94.73;100355.06;713932;1199;115093;-79
2021/09/10 02:53:02;;;;;;;40.13;19.63;;;;;;;12.49;96.26;100355.34;713877;1175;115233;-79
2021/09/10 03:08:04;;;;;;;89.50;45.73;;;;;;;12.34;97.13;100342.81;713793;1199;116044;-79
2021/09/10 03:23:07;;;;;;;26.83;16.15;;;;;;;12.63;100.00;100355.84;713911;1203;113860;-80
2021/09/10 03:38:09;;;;;;;46.60;22.60;;;;;;;12.28;98.99;100344.23;713899;1200;115915;-80
2021/09/10 03:53:11;;;;;;;43.35;21.60;;;;;;;12.08;98.67;100336.41;713826;1190;114514;-78
2021/09/10 04:08:14;;;;;;;40.03;19.63;;;;;;;11.91;98.96;100342.39;713920;1177;114310;-77
2021/09/10 04:23:16;;;;;;;30.43;17.00;;;;;;;11.85;99.25;100346.42;713898;1200;115358;-77
2021/09/10 04:38:18;;;;;;;37.93;19.00;;;;;;;11.92;99.64;100354.57;713993;1200;114686;-78
2021/09/10 04:53:20;;;;;;;33.70;17.97;;;;;;;12.20;100.00;100363.36;713957;1200;114318;-79
2021/09/10 05:08:23;;;;;;;30.58;17.65;;;;;;;12.37;100.00;100363.59;713887;1199;115878;-79
2021/09/10 05:23:25;;;;;;;31.65;18.03;;;;;;;12.81;100.00;100355.86;714065;1199;114986;-78
2021/09/10 05:38:27;;;;;;;25.40;15.35;;;;;;;13.58;100.00;100358.08;713737;1199;115206;-78
2021/09/10 05:53:30;;;;;;;27.93;15.30;;;;;;;14.47;100.00;100370.14;713779;1200;116159;-80
2021/09/10 06:08:33;;;;;;;35.83;17.18;;;;;;;15.48;100.00;100381.64;713898;1202;114949;-74
2021/09/10 06:23:37;;;;;;;27.10;12.10;;;;;;;16.40;96.59;100377.86;714055;1199;115921;-74
2021/09/10 06:38:40;;;;;;;18.08;11.30;;;;;;;17.43;92.05;100396.37;713743;1199;115082;-75
2021/09/10 06:53:42;;;;;;;15.83;11.90;;;;;;;18.21;88.01;100397.03;713830;1200;116006;-74
2021/09/10 07:08:44;;;;;;;17.43;9.53;;;;;;;19.64;86.15;100404.58;714459;1176;114458;-77
2021/09/10 07:23:47;;;;;;;13.93;8.88;;;;;;;20.67;80.67;100400.53;714890;1200;114900;-72
2021/09/10 07:38:50;;;;;;;14.33;9.10;;;;;;;21.35;78.32;100408.50;713804;1205;114065;-73
2021/09/10 07:53:52;;;;;;;16.25;8.58;;;;;;;22.04;75.66;100417.17;714055;1200;115934;-73
2021/09/10 08:08:55;;;;;;;17.00;9.03;;;;;;;23.19;74.03;100418.44;714777;1200;115083;-75
2021/09/10 08:23:57;;;;;;;13.18;8.10;;;;;;;23.38;70.52;100427.35;714870;1200;114765;-76
2021/09/10 08:39:01;;;;;;;10.50;7.43;;;;;;;24.11;69.05;100419.77;714243;1200;115867;-74
2021/09/10 08:54:04;;;;;;;18.33;9.45;;;;;;;24.62;67.73;100419.64;714194;1178;114306;-75
2021/09/10 09:09:06;;;;;;;13.00;6.93;;;;;;;24.83;64.91;100415.69;713938;1200;114164;-75
2021/09/10 09:24:15;;;;;;;11.80;6.60;;;;;;;25.96;63.32;100418.52;714163;1202;116092;-74
2021/09/10 09:39:18;;;;;;;9.60;6.08;;;;;;;26.06;61.24;100426.84;713833;1201;114187;-74
2021/09/10 09:54:21;;;;;;;9.65;5.85;;;;;;;26.80;60.79;100416.52;713992;1200;114727;-75
2021/09/10 10:09:25;;;;;;;13.77;6.97;;;;;;;27.56;59.12;100422.45;714003;1177;113982;-74
2021/09/10 10:24:52;;;;;;;7.13;4.75;;;;;;;28.10;58.89;100409.50;714474;1205;114152;-76
2021/09/10 10:40:25;;;;;;;12.70;5.25;;;;;;;28.28;57.42;100405.70;714713;1174;114866;-76
2021/09/10 10:55:40;;;;;;;9.03;4.60;;;;;;;28.52;55.10;100404.39;715196;1200;114286;-75
2021/09/10 11:10:43;;;;;;;10.15;4.95;;;;;;;29.33;55.64;100394.70;714325;1202;114548;-75
2021/09/10 11:25:51;;;;;;;7.18;3.88;;;;;;;29.85;54.33;100386.94;713837;1175;114607;-78
2021/09/10 11:40:59;;;;;;;7.53;4.40;;;;;;;29.85;52.75;100382.37;714097;1203;114770;-82
2021/09/10 11:56:07;;;;;;;5.40;3.80;;;;;;;30.14;51.42;100367.65;714352;1203;115242;-78
2021/09/10 12:11:21;;;;;;;5.15;3.20;;;;;;;30.84;50.88;100373.57;714639;1199;114191;-74
2021/09/10 12:26:24;;;;;;;6.38;3.58;;;;;;;30.98;48.99;100363.00;713923;1200;114089;-85
2021/09/10 12:41:30;;;;;;;4.68;3.48;;;;;;;31.62;48.25;100350.02;714024;1177;115138;-81
2021/09/10 12:56:39;;;;;;;9.78;3.75;;;;;;;32.09;48.40;100345.23;714448;1202;114652;-79
2021/09/10 13:11:42;;;;;;;11.53;3.48;;;;;;;31.88;47.53;100349.94;714520;1178;113967;-84
2021/09/10 13:26:45;;;;;;;6.15;3.63;;;;;;;32.16;47.31;100339.51;714014;1178;114244;-76
2021/09/10 13:41:48;;;;;;;7.53;3.30;;;;;;;32.19;46.04;100345.23;714214;1177;114455;-78
2021/09/10 13:56:51;;;;;;;13.75;4.03;;;;;;;38.20;42.04;100328.15;714544;1184;114255;-79
2021/09/10 14:11:54;;;;;;;5.78;3.35;;;;;;;37.49;40.05;100318.15;714763;1199;115504;-79
2021/09/10 14:26:57;;;;;;;5.17;3.03;;;;;;;33.77;43.66;100315.45;714491;1179;114152;-79
2021/09/10 14:42:00;;;;;;;6.07;3.20;;;;;;;37.50;41.46;100306.09;714384;1200;114035;-78
2021/09/10 14:57:03;;;;;;;34.25;6.90;;;;;;;40.70;38.67;100306.94;714125;1203;114724;-78
2021/09/10 15:12:08;;;;;;;7.73;3.60;;;;;;;32.32;42.74;100288.71;714138;1200;114228;-79
2021/09/10 15:27:11;;;;;;;9.08;4.10;;;;;;;32.95;45.77;100290.70;714651;1203;114323;-79
2021/09/10 15:42:13;;;;;;;7.15;3.25;;;;;;;35.05;43.25;100288.31;714985;1200;114626;-79
2021/09/10 15:57:15;;;;;;;7.25;2.85;;;;;;;35.59;44.14;100291.41;714799;1177;113991;-78
2021/09/10 16:12:18;;;;;;;11.23;4.33;;;;;;;35.32;42.76;100290.27;714166;1199;114699;-78
2021/09/10 16:27:20;;;;;;;10.38;5.38;;;;;;;30.17;48.07;100288.68;714082;1177;114032;-77
2021/09/10 16:42:23;;;;;;;6.18;3.53;;;;;;;28.04;52.04;100281.93;713991;1200;114585;-78
2021/09/10 16:57:26;;;;;;;7.43;3.45;;;;;;;26.82;53.61;100286.08;714008;1202;115454;-79
2021/09/10 17:12:28;;;;;;;6.00;3.93;;;;;;;25.95;55.29;100298.64;714004;1200;114075;-78
2021/09/10 17:27:32;;;;;;;10.35;6.78;;;;;;;25.43;56.78;100302.06;714348;1200;114184;-79
2021/09/10 17:42:35;;;;;;;17.43;11.08;;;;;;;24.94;57.71;100310.27;713991;1176;115009;-79
2021/09/10 17:57:37;;;;;;;11.25;8.05;;;;;;;24.58;59.18;100317.38;714147;1203;114838;-80
2021/09/10 18:12:41;;;;;;;47.78;25.13;;;;;;;23.88;60.13;100323.95;714168;1199;114882;-80
2021/09/10 18:27:45;;;;;;;120.53;62.13;;;;;;;23.22;62.72;100343.07;713981;1203;115011;-77
2021/09/10 18:42:47;;;;;;;20.93;11.10;;;;;;;22.98;63.17;100341.98;713965;1204;115192;-78
2021/09/10 18:57:50;;;;;;;38.95;21.08;;;;;;;22.28;65.71;100348.88;713926;1177;115468;-78
2021/09/10 19:12:53;;;;;;;71.17;34.43;;;;;;;21.60;68.90;100346.56;713998;1178;114594;-78
2021/09/10 19:27:55;;;;;;;52.78;28.15;;;;;;;21.24;70.68;100347.77;713995;1203;114415;-76
2021/09/10 19:42:58;;;;;;;65.40;32.75;;;;;;;20.87;72.12;100355.30;714085;1202;114343;-76
2021/09/10 19:58:00;;;;;;;79.15;41.63;;;;;;;20.51;73.47;100364.36;714171;1199;114501;-76
2021/09/10 20:13:02;;;;;;;63.20;32.27;;;;;;;20.27;74.59;100355.85;714254;1199;114876;-77
2021/09/10 20:28:05;;;;;;;50.28;25.75;;;;;;;19.99;75.27;100364.71;715240;1199;115082;-78
2021/09/10 20:43:08;;;;;;;42.67;22.83;;;;;;;19.79;75.68;100365.39;714629;1176;114350;-77
2021/09/10 20:58:10;;;;;;;50.68;23.43;;;;;;;19.52;76.73;100371.50;714283;1199;114821;-76
2021/09/10 21:13:12;;;;;;;41.95;22.43;;;;;;;19.47;76.11;100384.58;714072;1199;115505;-75
2021/09/10 21:28:15;;;;;;;23.03;12.93;;;;;;;19.23;76.69;100389.27;714382;1200;115529;-77
2021/09/10 21:43:17;;;;;;;17.58;9.05;;;;;;;19.23;76.41;100389.27;718242;1189;113779;-77
2021/09/10 21:58:19;;;;;;;18.57;8.37;;;;;;;19.18;76.04;100389.02;718441;1200;115070;-78
2021/09/10 22:13:21;;;;;;;19.83;8.48;;;;;;;19.16;74.83;100399.00;714974;1199;115713;-81
2021/09/10 22:28:24;;;;;;;18.93;8.73;;;;;;;18.91;76.09;100396.69;714220;1203;115793;-79
2021/09/10 22:43:26;;;;;;;17.18;9.33;;;;;;;18.40;78.89;100400.95;714280;1203;115045;-81
2021/09/10 22:58:28;;;;;;;35.03;14.00;;;;;;;18.26;78.87;100393.81;714495;1203;115505;-80
2021/09/10 23:13:30;;;;;;;27.95;13.45;;;;;;;17.73;81.21;100397.28;713970;1203;116891;-80
2021/09/10 23:28:32;;;;;;;24.83;12.03;;;;;;;17.47;82.72;100392.36;713838;1178;114182;-81
2021/09/10 23:43:35;;;;;;;39.03;18.60;;;;;;;17.61;81.87;100394.23;713881;1202;115326;-80
2021/09/10 23:58:37;;;;;;;31.30;17.00;;;;;;;17.08;83.79;100393.31;713863;1199;114639;-80
